createdAt,value
2022-10-18T00:00:22.056Z,12.67
2022-10-18T00:03:25.462Z,12.71
2022-10-18T00:06:28.252Z,12.78
2022-10-18T00:09:32.636Z,12.83
2022-10-18T00:12:35.814Z,12.96
2022-10-18T00:15:38.774Z,12.99
2022-10-18T00:18:41.861Z,12.90
2022-10-18T00:24:48.772Z,13.16
2022-10-18T00:27:52.529Z,13.27
2022-10-18T00:30:55.410Z,13.32
2022-10-18T00:34:00.141Z,13.05
2022-10-18T00:37:02.899Z,13.02
2022-10-18T00:40:08.400Z,12.91
2022-10-18T00:43:17.202Z,12.93
2022-10-18T00:46:20.122Z,13.04
2022-10-18T00:49:31.829Z,13.23
2022-10-18T00:52:37.944Z,13.34
2022-10-18T00:55:42.218Z,13.38
2022-10-18T00:58:47.410Z,13.39
2022-10-18T01:01:50.327Z,13.39
2022-10-18T01:04:53.289Z,13.39
2022-10-18T01:08:34.620Z,13.37
2022-10-18T01:12:07.179Z,13.41
2022-10-18T01:15:15.657Z,13.41
2022-10-18T01:18:26.984Z,13.42
2022-10-18T01:21:39.395Z,13.39
2022-10-18T01:28:21.144Z,13.44
2022-10-18T01:31:31.829Z,13.42
2022-10-18T01:34:37.386Z,13.38
2022-10-18T01:37:42.565Z,13.34
2022-10-18T01:40:48.814Z,13.36
2022-10-18T01:43:57.167Z,13.32
2022-10-18T01:47:02.482Z,13.28
2022-10-18T01:50:07.865Z,13.25
2022-10-18T01:53:23.529Z,13.27
2022-10-18T01:56:38.201Z,13.28
2022-10-18T01:59:52.964Z,13.32
2022-10-18T02:03:03.116Z,13.32
2022-10-18T02:06:11.435Z,13.30
2022-10-18T02:09:20.050Z,13.29
2022-10-18T02:12:24.429Z,13.27
2022-10-18T02:15:31.599Z,13.15
2022-10-18T02:18:41.476Z,13.16
2022-10-18T02:21:47.284Z,13.17
2022-10-18T02:24:54.446Z,13.19
2022-10-18T02:27:57.685Z,13.17
2022-10-18T02:31:07.725Z,13.17
2022-10-18T02:34:18.696Z,13.24
2022-10-18T02:37:21.848Z,13.29
2022-10-18T02:40:26.365Z,13.20
2022-10-18T02:43:29.197Z,13.02
2022-10-18T02:46:32.103Z,13.04
2022-10-18T02:49:36.282Z,13.07
2022-10-18T02:52:39.294Z,13.00
2022-10-18T02:55:42.090Z,13.10
2022-10-18T02:58:45.132Z,13.11
2022-10-18T03:01:47.986Z,13.13
2022-10-18T03:04:52.334Z,13.10
2022-10-18T03:07:57.764Z,13.04
2022-10-18T03:11:00.610Z,13.15
2022-10-18T03:14:03.453Z,13.19
2022-10-18T03:17:06.351Z,13.18
2022-10-18T03:20:11.871Z,13.18
2022-10-18T03:23:14.742Z,13.17
2022-10-18T03:26:17.617Z,13.18
2022-10-18T03:29:20.424Z,13.17
2022-10-18T03:32:23.337Z,13.11
2022-10-18T03:35:27.598Z,13.09
2022-10-18T03:38:30.496Z,13.03
2022-10-18T03:41:33.330Z,13.00
2022-10-18T03:44:36.160Z,13.03
2022-10-18T03:47:39.008Z,13.07
2022-10-18T03:50:43.882Z,13.02
2022-10-18T03:53:46.679Z,13.01
2022-10-18T03:56:49.516Z,13.03
2022-10-18T03:59:52.311Z,12.95
2022-10-18T04:02:56.039Z,12.99
2022-10-18T04:06:03.407Z,12.89
2022-10-18T04:09:09.361Z,12.94
2022-10-18T04:12:13.132Z,12.95
2022-10-18T04:15:16.106Z,13.01
2022-10-18T04:18:18.923Z,13.06
2022-10-18T04:21:23.153Z,13.06
2022-10-18T04:24:26.105Z,13.06
2022-10-18T04:27:29.117Z,13.07
2022-10-18T04:30:32.164Z,13.05
2022-10-18T04:33:34.989Z,13.02
2022-10-18T04:36:39.214Z,13.02
2022-10-18T04:39:49.781Z,13.02
2022-10-18T04:42:55.565Z,13.05
2022-10-18T04:45:58.374Z,13.06
2022-10-18T04:49:01.658Z,12.99
2022-10-18T04:52:06.205Z,13.02
2022-10-18T04:55:09.752Z,13.04
2022-10-18T04:58:12.880Z,13.06
2022-10-18T05:01:17.186Z,13.12
2022-10-18T05:04:20.098Z,13.10
2022-10-18T05:07:24.348Z,13.14
2022-10-18T05:10:27.293Z,13.14
2022-10-18T05:13:30.603Z,13.18
2022-10-18T05:16:33.473Z,13.23
2022-10-18T05:19:36.291Z,13.24
2022-10-18T05:22:40.500Z,13.23
2022-10-18T05:25:43.850Z,13.26
2022-10-18T05:28:46.897Z,13.29
2022-10-18T05:31:50.371Z,13.29
2022-10-18T05:34:53.224Z,13.31
2022-10-18T05:37:57.408Z,13.31
2022-10-18T05:41:00.874Z,13.36
2022-10-18T05:44:05.663Z,13.39
2022-10-18T05:47:08.506Z,13.42
2022-10-18T05:50:11.353Z,13.46
2022-10-18T05:53:35.717Z,13.46
2022-10-18T05:59:41.952Z,13.52
2022-10-18T06:02:44.793Z,13.55
2022-10-18T06:05:47.653Z,13.59
2022-10-18T06:08:51.826Z,13.60
2022-10-18T06:11:55.463Z,13.61
2022-10-18T06:14:58.297Z,13.63
2022-10-18T06:18:01.091Z,13.64
2022-10-18T06:21:03.987Z,13.64
2022-10-18T06:24:08.390Z,13.61
2022-10-18T06:27:11.250Z,13.59
2022-10-18T06:30:14.084Z,13.53
2022-10-18T06:33:16.889Z,13.53
2022-10-18T06:36:23.149Z,13.56
2022-10-18T06:39:27.823Z,13.59
2022-10-18T06:42:31.919Z,13.62
2022-10-18T06:45:34.985Z,13.60
2022-10-18T06:48:39.846Z,13.64
2022-10-18T06:51:43.442Z,13.67
2022-10-18T06:54:47.637Z,13.70
2022-10-18T06:57:50.438Z,13.69
2022-10-18T07:00:53.299Z,13.69
2022-10-18T07:03:56.543Z,13.72
2022-10-18T07:06:59.340Z,13.70
2022-10-18T07:10:03.744Z,13.70
2022-10-18T07:13:31.453Z,13.72
2022-10-18T07:16:29.357Z,13.74
2022-10-18T07:19:32.194Z,13.74
2022-10-18T07:22:35.121Z,13.75
2022-10-18T07:25:39.411Z,13.81
2022-10-18T07:28:42.759Z,13.80
2022-10-18T07:31:45.641Z,13.81
2022-10-18T07:34:48.474Z,13.84
2022-10-18T07:37:51.233Z,13.86
2022-10-18T07:40:58.952Z,13.89
2022-10-18T07:44:02.947Z,13.91
2022-10-18T07:47:05.827Z,13.95
2022-10-18T07:50:09.604Z,14.02
2022-10-18T07:53:12.514Z,14.13
2022-10-18T07:56:21.398Z,14.28
2022-10-18T07:59:24.390Z,14.38
2022-10-18T08:02:27.250Z,14.44
2022-10-18T08:05:30.599Z,14.45
2022-10-18T08:08:33.609Z,14.43
2022-10-18T08:11:37.819Z,14.48
2022-10-18T08:14:40.649Z,14.52
2022-10-18T08:17:44.300Z,14.55
2022-10-18T08:20:47.429Z,14.60
2022-10-18T08:23:50.891Z,14.61
2022-10-18T08:26:55.103Z,14.62
2022-10-18T08:29:59.809Z,14.65
2022-10-18T08:33:02.905Z,14.71
2022-10-18T08:36:08.374Z,14.78
2022-10-18T08:39:11.208Z,14.82
2022-10-18T08:42:34.953Z,14.94
2022-10-18T08:45:42.988Z,15.03
2022-10-18T08:48:49.780Z,15.11
2022-10-18T08:51:53.459Z,15.23
2022-10-18T08:55:02.597Z,15.45
2022-10-18T08:58:17.200Z,15.61
2022-10-18T09:01:31.564Z,15.79
2022-10-18T09:04:44.923Z,16.06
2022-10-18T09:08:16.196Z,16.57
2022-10-18T09:11:32.986Z,16.56
2022-10-18T09:15:02.703Z,16.59
2022-10-18T09:18:17.060Z,16.91
2022-10-18T09:21:22.861Z,16.81
2022-10-18T09:24:32.018Z,16.87
2022-10-18T09:27:42.626Z,17.09
2022-10-18T09:30:58.655Z,17.20
2022-10-18T09:34:06.478Z,17.43
2022-10-18T09:37:14.594Z,17.46
2022-10-18T09:40:21.967Z,17.39
2022-10-18T09:43:34.755Z,17.16
2022-10-18T09:46:41.930Z,16.98
2022-10-18T09:49:48.692Z,16.89
2022-10-18T09:52:58.049Z,16.83
2022-10-18T09:56:04.671Z,16.81
2022-10-18T09:59:29.128Z,17.05
2022-10-18T10:02:33.509Z,17.15
2022-10-18T10:05:36.413Z,17.24
2022-10-18T10:08:43.050Z,17.19
2022-10-18T10:11:48.823Z,17.32
2022-10-18T10:14:51.747Z,17.19
2022-10-18T10:17:58.763Z,17.31
2022-10-18T10:21:06.385Z,17.14
2022-10-18T10:24:24.997Z,16.96
2022-10-18T10:27:33.401Z,16.98
2022-10-18T10:30:38.539Z,16.78
2022-10-18T10:33:47.769Z,16.50
2022-10-18T10:36:52.139Z,16.67
2022-10-18T10:40:19.779Z,16.60
2022-10-18T10:43:42.583Z,16.48
2022-10-18T10:46:45.807Z,16.55
2022-10-18T10:49:49.996Z,16.62
2022-10-18T10:52:53.652Z,16.56
2022-10-18T10:55:59.113Z,16.40
2022-10-18T10:59:11.127Z,16.20
2022-10-18T11:02:22.634Z,16.34
2022-10-18T11:05:29.513Z,16.26
2022-10-18T11:08:37.035Z,16.20
2022-10-18T11:11:46.977Z,15.91
2022-10-18T11:14:57.042Z,15.83
2022-10-18T11:18:11.435Z,16.09
2022-10-18T11:21:19.841Z,15.91
2022-10-18T11:24:24.249Z,15.92
2022-10-18T11:27:33.965Z,15.85
2022-10-18T11:30:49.073Z,15.87
2022-10-18T11:34:10.170Z,16.05
2022-10-18T11:37:38.414Z,16.16
2022-10-18T11:40:59.502Z,15.82
2022-10-18T11:44:05.160Z,15.68
2022-10-18T11:47:16.799Z,15.69
2022-10-18T11:50:28.522Z,15.46
2022-10-18T11:53:39.887Z,15.37
2022-10-18T11:56:49.080Z,15.42
2022-10-18T12:00:02.357Z,15.64
2022-10-18T12:03:23.617Z,15.48
2022-10-18T12:06:31.920Z,15.28
2022-10-18T12:09:41.250Z,15.34
2022-10-18T12:12:51.478Z,15.18
2022-10-18T12:15:55.691Z,15.04
2022-10-18T12:19:01.132Z,15.05
2022-10-18T12:22:15.705Z,15.14
2022-10-18T12:25:20.755Z,15.10
2022-10-18T12:28:34.857Z,14.96
2022-10-18T12:31:43.400Z,15.07
2022-10-18T12:34:50.394Z,14.99
2022-10-18T12:38:06.653Z,15.00
2022-10-18T12:41:21.120Z,14.75
2022-10-18T12:44:30.761Z,14.90
2022-10-18T12:47:34.529Z,14.87
2022-10-18T12:50:40.482Z,14.90
2022-10-18T12:53:45.949Z,14.80
2022-10-18T12:56:50.987Z,14.74
2022-10-18T12:59:53.911Z,14.76
2022-10-18T13:03:31.274Z,14.75
2022-10-18T13:07:11.111Z,14.76
2022-10-18T13:10:41.359Z,14.91
2022-10-18T13:13:55.835Z,15.03
2022-10-18T13:17:05.871Z,14.84
2022-10-18T13:20:26.760Z,14.95
2022-10-18T13:23:44.319Z,15.17
2022-10-18T13:30:40.921Z,15.19
2022-10-18T13:33:43.824Z,15.25
2022-10-18T13:36:57.931Z,15.36
2022-10-18T13:40:24.047Z,15.32
2022-10-18T13:43:52.437Z,15.34
2022-10-18T13:47:36.417Z,15.15
2022-10-18T13:50:44.236Z,15.10
2022-10-18T13:53:56.363Z,15.28
2022-10-18T13:57:15.333Z,15.40
2022-10-18T14:00:48.224Z,15.45
2022-10-18T14:04:24.017Z,15.51
2022-10-18T14:07:28.196Z,15.64
2022-10-18T14:10:57.442Z,15.57
2022-10-18T14:14:13.349Z,15.41
2022-10-18T14:17:33.215Z,15.36
2022-10-18T14:20:55.365Z,15.38
2022-10-18T14:24:10.785Z,15.30
2022-10-18T14:27:18.712Z,15.26
2022-10-18T14:30:22.138Z,15.16
2022-10-18T14:33:32.794Z,15.09
2022-10-18T14:36:41.756Z,15.15
2022-10-18T14:39:44.648Z,15.12
2022-10-18T14:42:50.071Z,15.01
2022-10-18T14:45:53.120Z,15.03
2022-10-18T14:48:57.829Z,14.96
2022-10-18T14:52:02.354Z,15.05
2022-10-18T14:55:05.959Z,14.87
2022-10-18T14:58:15.888Z,14.94
2022-10-18T15:01:21.124Z,15.01
2022-10-18T15:04:31.100Z,14.90
2022-10-18T15:07:36.717Z,14.95
2022-10-18T15:10:40.010Z,14.85
2022-10-18T15:13:49.534Z,14.82
2022-10-18T15:16:56.131Z,14.89
2022-10-18T15:20:05.150Z,14.82
2022-10-18T15:23:25.878Z,14.87
2022-10-18T15:26:31.355Z,14.93
2022-10-18T15:29:37.681Z,15.02
2022-10-18T15:32:49.795Z,15.01
2022-10-18T15:35:54.189Z,15.06
2022-10-18T15:39:08.604Z,15.02
2022-10-18T15:42:37.076Z,15.10
2022-10-18T15:48:50.692Z,14.97
2022-10-18T15:52:38.270Z,14.89
2022-10-18T15:55:52.871Z,14.92
2022-10-18T15:58:57.794Z,14.95
2022-10-18T16:02:01.006Z,14.91
2022-10-18T16:05:04.966Z,14.96
2022-10-18T16:08:07.974Z,14.96
2022-10-18T16:11:16.371Z,14.98
2022-10-18T16:14:19.700Z,15.05
2022-10-18T16:17:22.570Z,14.99
2022-10-18T16:20:26.874Z,14.93
2022-10-18T16:23:29.755Z,15.02
2022-10-18T16:26:34.825Z,15.08
2022-10-18T16:29:37.712Z,14.94
2022-10-18T16:32:40.854Z,14.88
2022-10-18T16:35:43.853Z,14.98
2022-10-18T16:38:47.722Z,14.96
2022-10-18T16:41:52.259Z,14.99
2022-10-18T16:44:55.329Z,14.99
2022-10-18T16:47:58.163Z,14.77
2022-10-18T16:51:01.059Z,14.75
2022-10-18T16:54:03.987Z,14.67
2022-10-18T16:57:08.202Z,14.59
2022-10-18T17:00:18.269Z,14.44
2022-10-18T17:03:22.144Z,14.24
2022-10-18T17:06:27.464Z,14.28
2022-10-18T17:09:31.216Z,14.12
2022-10-18T17:12:35.734Z,14.17
2022-10-18T17:15:41.204Z,14.22
2022-10-18T17:18:44.268Z,14.16
2022-10-18T17:21:47.393Z,14.19
2022-10-18T17:24:51.025Z,14.31
2022-10-18T17:27:55.258Z,14.28
2022-10-18T17:30:58.607Z,14.24
2022-10-18T17:34:02.168Z,14.24
2022-10-18T17:37:05.851Z,14.31
2022-10-18T17:40:10.811Z,14.35
2022-10-18T17:43:15.576Z,14.34
2022-10-18T17:46:19.578Z,14.45
2022-10-18T17:49:22.910Z,14.51
2022-10-18T17:52:26.159Z,14.58
2022-10-18T17:55:30.244Z,14.45
2022-10-18T17:58:35.302Z,14.34
2022-10-18T18:01:38.613Z,14.50
2022-10-18T18:04:41.500Z,14.48
2022-10-18T18:07:44.549Z,14.38
2022-10-18T18:13:51.881Z,14.40
2022-10-18T18:16:55.074Z,14.32
2022-10-18T18:19:58.227Z,14.40
2022-10-18T18:23:04.613Z,14.42
2022-10-18T18:26:07.809Z,14.34
2022-10-18T18:29:14.323Z,14.12
2022-10-18T18:32:19.280Z,14.12
2022-10-18T18:35:22.388Z,14.20
2022-10-18T18:38:26.414Z,14.25
2022-10-18T18:41:29.743Z,14.11
2022-10-18T18:44:35.518Z,14.17
2022-10-18T18:47:39.947Z,14.08
2022-10-18T18:50:50.484Z,14.01
2022-10-18T18:53:53.571Z,13.96
2022-10-18T18:56:57.878Z,13.99
2022-10-18T19:00:02.220Z,13.97
2022-10-18T19:03:06.441Z,14.00
2022-10-18T19:06:11.153Z,14.11
2022-10-18T19:09:21.814Z,14.09
2022-10-18T19:12:27.681Z,14.02
2022-10-18T19:15:32.052Z,13.91
2022-10-18T19:18:35.609Z,14.03
2022-10-18T19:21:40.590Z,14.12
2022-10-18T19:24:43.421Z,14.02
2022-10-18T19:27:46.287Z,14.16
2022-10-18T19:30:50.685Z,14.01
2022-10-18T19:33:59.569Z,13.97
2022-10-18T19:37:02.895Z,13.99
2022-10-18T19:40:06.843Z,14.01
2022-10-18T19:43:09.780Z,13.97
2022-10-18T19:46:14.089Z,14.06
2022-10-18T19:49:17.929Z,14.11
2022-10-18T19:52:21.011Z,14.13
2022-10-18T19:55:26.932Z,14.02
2022-10-18T19:58:30.034Z,14.04
2022-10-18T20:01:34.400Z,13.93
2022-10-18T20:04:38.237Z,13.99
2022-10-18T20:07:42.578Z,13.79
2022-10-18T20:10:45.908Z,13.99
2022-10-18T20:13:49.610Z,13.81
2022-10-18T20:16:54.031Z,13.77
2022-10-18T20:19:57.076Z,13.65
2022-10-18T20:23:00.480Z,13.55
2022-10-18T20:26:05.741Z,13.52
2022-10-18T20:29:08.741Z,13.54
2022-10-18T20:32:13.459Z,13.61
2022-10-18T20:35:16.593Z,13.59
2022-10-18T20:38:21.804Z,13.59
2022-10-18T20:41:26.688Z,13.74
2022-10-18T20:44:31.942Z,13.60
2022-10-18T20:47:36.733Z,13.74
2022-10-18T20:50:43.071Z,13.68
2022-10-18T20:53:46.760Z,13.71
2022-10-18T20:56:49.797Z,13.80
2022-10-18T20:59:52.638Z,13.81
2022-10-18T21:02:59.776Z,13.62
2022-10-18T21:06:12.744Z,13.63
2022-10-18T21:09:18.685Z,13.55
2022-10-18T21:12:21.771Z,13.57
2022-10-18T21:15:24.593Z,13.59
2022-10-18T21:18:29.879Z,13.52
2022-10-18T21:21:33.345Z,13.25
2022-10-18T21:24:36.688Z,13.21
2022-10-18T21:27:39.581Z,13.08
2022-10-18T21:30:42.828Z,13.18
2022-10-18T21:33:47.763Z,13.30
2022-10-18T21:36:50.686Z,13.38
2022-10-18T21:39:53.511Z,13.36
2022-10-18T21:42:56.327Z,13.38
2022-10-18T21:46:00.240Z,13.44
2022-10-18T21:49:04.567Z,13.46
2022-10-18T21:52:07.418Z,13.47
2022-10-18T21:55:10.688Z,13.46
2022-10-18T21:58:13.515Z,13.41
2022-10-18T22:01:18.008Z,13.44
2022-10-18T22:04:23.662Z,13.29
2022-10-18T22:07:26.502Z,13.34
2022-10-18T22:10:29.898Z,13.33
2022-10-18T22:13:33.144Z,13.32
2022-10-18T22:16:36.090Z,13.35
2022-10-18T22:19:40.569Z,13.34
2022-10-18T22:22:43.475Z,13.37
2022-10-18T22:25:46.331Z,13.37
2022-10-18T22:28:55.923Z,13.36
2022-10-18T22:31:58.912Z,13.27
2022-10-18T22:35:03.136Z,13.31
2022-10-18T22:38:05.953Z,13.36
2022-10-18T22:41:09.990Z,13.33
2022-10-18T22:44:14.346Z,13.33
2022-10-18T22:47:17.177Z,13.32
2022-10-18T22:50:21.417Z,13.30
2022-10-18T22:53:24.431Z,13.27
2022-10-18T22:56:27.253Z,13.23
2022-10-18T22:59:30.142Z,13.13
2022-10-18T23:02:33.291Z,13.04
2022-10-18T23:05:39.978Z,12.99
2022-10-18T23:08:42.844Z,12.97
2022-10-18T23:11:47.053Z,12.93
2022-10-18T23:14:49.871Z,12.85
2022-10-18T23:17:54.610Z,12.82
2022-10-18T23:21:03.264Z,12.82
2022-10-18T23:24:06.294Z,12.80
2022-10-18T23:27:09.129Z,12.78
2022-10-18T23:30:13.024Z,12.78
2022-10-18T23:33:15.869Z,12.77
2022-10-18T23:36:22.732Z,12.78
2022-10-18T23:39:25.587Z,12.79
2022-10-18T23:42:28.497Z,12.70
2022-10-18T23:45:31.303Z,12.71
2022-10-18T23:48:35.108Z,12.66
2022-10-18T23:51:39.322Z,12.65
2022-10-18T23:54:42.172Z,12.65
2022-10-18T23:57:44.987Z,12.54
